NCAR-RAP Real-Time Weather Data

Output produced by METARs form (23 January 2018  15:36 UTC)
found at http://weather.rap.ucar.edu/surface/
 
RJFT 231200Z 29005KT 250V310 9999 FEW030 M00/M05 Q1020
RJFT 231100Z 29004KT 250V320 9999 FEW030 00/M05 Q1020
RJFT 231000Z 30007KT 9999 FEW025 01/M04 Q1020
RJFT 230900Z 32005KT 9999 FEW025 02/M05 Q1019
RJFT 230800Z 33008KT 300V010 9999 FEW025 BKN030 03/M04 Q1019
RJFT 230700Z 32009KT 290V010 9999 FEW025 SCT050 04/M04 Q1018
RJFT 230600Z 32011KT 280V350 9999 FEW025 SCT050 05/M05 Q1018
RJFT 230500Z 31011KT 270V340 9999 FEW020 SCT025 06/M03 Q1018
RJFT 230400Z 31012KT 280V350 9999 VCSH FEW015 SCT020 BKN025 05/M01 Q1018
RJFT 230300Z 32011KT 280V360 9999 FEW030 BKN050 05/M00 Q1018
RJFT 230200Z 28007KT 210V330 9999 FEW030 SCT045 07/M01 Q1019
RJFT 230100Z 31008KT 9999 FEW030 SCT100 06/01 Q1019
RJFT 230000Z 33006KT 300V020 8000 FEW020 SCT040 04/02 Q1018
RJFT 222328Z 34005KT 300V070 6000 SCT025 BKN040 04/03 Q1017 RMK 3CU025 5CU040 A3004
RJFT 222300Z VRB03KT 4500 BR SCT025 BKN035 04/04 Q1017
RJFT 222206Z 30004KT 270V350 4000 BR FEW015 BKN025 04/04 Q1016 RMK 1CU015 5CU025 A3003
RJFT 222200Z VRB02KT 6000 FEW020 04/04 Q1016
RJFT 222110Z VRB01KT 8000 FEW015 04/04 Q1016 RMK 2CU015 A3001
RJFT 221200Z 11003KT 5000 R07/P1800N FG FEW001 02/02 Q1015
RJFT 221100Z 13003KT 7000 R07/P1800N PRFG FEW001 03/03 Q1015
RJFT 221000Z VRB02KT 8000 FEW005 SCT020 04/04 Q1015
RJFT 220900Z VRB01KT 9999 FEW005 BKN020 05/05 Q1014
RJFT 220800Z 23003KT 200V270 9999 FEW007 BKN010 05/05 Q1013
RJFT 220700Z VRB02KT 9999 FEW005 BKN015 05/05 Q1012
RJFT 220617Z 01003KT 8000 FEW005 SCT007 BKN020 05/05 Q1011 RMK 2ST005 4ST007 6CU020 A2988
RJFT 220600Z 36003KT 330V050 8000 FEW001 BKN007 BKN020 05/05 Q1011
RJFT 220543Z 32003KT 280V360 8000 FEW001 BKN007 BKN015 05/05 Q1012 RMK 1ST001 5ST007 7CU015 A2989
RJFT 220500Z 34004KT 300V050 8000 -SHRA FEW001 SCT008 BKN015 05/05 Q1011
RJFT 220440Z 34004KT 300V010 8000 FEW001 SCT005 BKN010 05/05 Q1011 RMK 1ST001 3ST005 6CU010 A2986
RJFT 220407Z 31006KT 290V010 6000 FEW002 SCT005 BKN008 05/05 Q1011 RMK 2ST002 4ST005 6ST008 A2985
RJFT 220400Z 31007KT 8000 PRFG FEW002 SCT006 BKN015 05/05 Q1010
RJFT 220342Z 31013KT 9999 PRFG FEW002 SCT050 BKN080 05/05 Q1010 RMK 2ST002 4SC050 6AC080 A2984 4000NE-E FG NE-E
RJFT 220300Z 01007KT 280V080 9999 FEW003 SCT050 BKN080 05/04 Q1010
RJFT 220221Z 06014KT 6000 -SHRA FEW002 SCT025 BKN045 04/04 Q1011 RMK 1ST002 4CU025 6SC045 A2987 P/FR
RJFT 220200Z 04007KT 4500 -SHRA BR FEW002 BKN025 BKN030 04/04 Q1012
RJFT 220122Z 19003KT 110V270 5000 -SHRA BR FEW005 SCT020 BKN025 04/04 Q1013 RMK 1ST005 3CU020 6CU025 A2992
RJFT 220100Z 09008KT 3000 SHRA BR FEW002 SCT010 BKN020 03/03 Q1013
RJFT 220033Z 05007KT 360V070 2000 SHRA BR FEW002 SCT010 BKN015 04/04 Q1014 RMK 1ST002 4CU010 6CU015 A2996
RJFT 220000Z 02007KT 350V050 2500 SHRA BR FEW005 BKN020 BKN025 04/04 Q1014
RJFT 212326Z 02006KT 2500 SHRA BR FEW005 BKN025 BKN030 04/04 Q1013 RMK 1ST005 5CU025 6CU030 A2993
RJFT 212311Z 01005KT 340V050 3000 -SHRA BR FEW005 BKN025 BKN030 04/04 Q1013 RMK 1ST005 5CU025 6CU030 A2994
RJFT 212300Z 02006KT 340V040 4500 -SHRA BR FEW005 BKN025 BKN030 04/04 Q1013
RJFT 212200Z 01007KT 5000 -SHRA BR FEW025 BKN030 05/04 Q1013
RJFT 212110Z 36007KT 9000 -SHRA FEW025 BKN040 06/02 Q1013 RMK 1CU025 7CU040 A2992
RJFT 211200Z 06008KT CAVOK 07/M02 Q1018
RJFT 211100Z 05007KT CAVOK 07/M01 Q1018
RJFT 211000Z 06008KT CAVOK 07/00 Q1018
RJFT 210911Z 06010KT CAVOK 08/00 Q1018 RMK A3008
RJFT 210900Z VRB04KT CAVOK 08/01 Q1018
RJFT 210800Z 25003KT CAVOK 10/M00 Q1018
RJFT 210700Z 30005KT 270V340 CAVOK 12/M00 Q1017
RJFT 210600Z 33005KT 270V040 CAVOK 12/M02 Q1018
RJFT 210500Z VRB03KT CAVOK 12/M01 Q1018
RJFT 210400Z VRB04KT CAVOK 11/M02 Q1019